createdAt,value
2018-07-28T00:00:52.815Z,25.01
2018-07-28T00:02:01.477Z,24.97
2018-07-28T00:03:10.130Z,24.96
2018-07-28T00:04:18.777Z,24.96
2018-07-28T00:05:27.424Z,24.89
2018-07-28T00:06:36.072Z,24.94
2018-07-28T00:07:44.994Z,24.88
2018-07-28T00:08:53.915Z,24.97
2018-07-28T00:10:02.569Z,24.97
2018-07-28T00:11:11.211Z,24.92
2018-07-28T00:12:19.872Z,24.92
2018-07-28T00:13:28.786Z,24.88
2018-07-28T00:14:37.450Z,24.99
2018-07-28T00:15:46.094Z,24.96
2018-07-28T00:16:55.028Z,24.94
2018-07-28T00:18:03.939Z,24.96
2018-07-28T00:19:12.591Z,24.88
2018-07-28T00:20:21.234Z,24.88
2018-07-28T00:21:30.153Z,24.94
2018-07-28T00:22:38.806Z,24.82
2018-07-28T00:23:47.461Z,24.92
2018-07-28T00:24:56.115Z,24.99
2018-07-28T00:26:04.757Z,24.93
2018-07-28T00:27:13.415Z,24.82
2018-07-28T00:28:22.066Z,24.82
2018-07-28T00:29:30.988Z,24.81
2018-07-28T00:30:39.900Z,24.81
2018-07-28T00:31:48.551Z,24.92
2018-07-28T00:32:57.200Z,24.81
2018-07-28T00:34:05.855Z,24.78
2018-07-28T00:35:14.501Z,24.88
2018-07-28T00:36:23.155Z,24.84
2018-07-28T00:37:31.804Z,24.79
2018-07-28T00:38:40.460Z,24.75
2018-07-28T00:39:49.108Z,24.75
2018-07-28T00:40:58.022Z,24.77
2018-07-28T00:42:06.673Z,24.74
2018-07-28T00:43:15.322Z,24.63
2018-07-28T00:44:23.976Z,24.62
2018-07-28T00:45:32.637Z,24.51
2018-07-28T00:46:41.288Z,24.56
2018-07-28T00:47:50.207Z,24.53
2018-07-28T00:48:58.860Z,24.5
2018-07-28T00:50:07.512Z,24.47
2018-07-28T00:51:16.165Z,24.5
2018-07-28T00:52:24.810Z,24.47
2018-07-28T00:53:33.465Z,24.47
2018-07-28T00:54:42.116Z,24.46
2018-07-28T00:55:50.765Z,24.4
2018-07-28T00:56:59.413Z,24.34
2018-07-28T00:58:08.083Z,24.29
2018-07-28T00:59:16.735Z,24.38
2018-07-28T01:00:25.390Z,24.29
2018-07-28T01:01:34.043Z,24.29
2018-07-28T01:02:42.688Z,24.31
2018-07-28T01:03:51.342Z,24.34
2018-07-28T01:05:00.259Z,24.34
2018-07-28T01:06:09.449Z,24.37
2018-07-28T01:07:18.097Z,24.38
2018-07-28T01:08:26.747Z,24.24
2018-07-28T01:09:35.397Z,24.34
2018-07-28T01:10:44.313Z,24.32
2018-07-28T01:11:52.964Z,24.38
2018-07-28T01:13:01.617Z,24.31
2018-07-28T01:14:10.264Z,24.34
2018-07-28T01:15:18.919Z,24.28
2018-07-28T01:16:27.567Z,24.37
2018-07-28T01:17:36.220Z,24.37
2018-07-28T01:18:44.870Z,24.31
2018-07-28T01:19:53.520Z,24.25
2018-07-28T01:21:02.179Z,24.32
2018-07-28T01:22:10.826Z,24.38
2018-07-28T01:23:19.471Z,24.34
2018-07-28T01:24:28.117Z,24.31
2018-07-28T01:25:36.773Z,24.26
2018-07-28T01:26:45.424Z,24.4
2018-07-28T01:27:54.074Z,24.29
2018-07-28T01:29:02.728Z,24.29
2018-07-28T01:30:11.377Z,24.37
2018-07-28T01:31:20.029Z,24.34
2018-07-28T01:32:28.684Z,24.41
2018-07-28T01:33:37.339Z,24.31
2018-07-28T01:34:45.988Z,24.37
2018-07-28T01:35:54.641Z,24.32
2018-07-28T01:37:03.287Z,24.38
2018-07-28T01:38:11.933Z,24.32
2018-07-28T01:39:20.850Z,24.36
2018-07-28T01:40:29.501Z,24.28
2018-07-28T01:41:38.158Z,24.25
2018-07-28T01:42:46.800Z,24.32
2018-07-28T01:43:55.455Z,24.29
2018-07-28T01:45:04.369Z,24.28
2018-07-28T01:46:13.022Z,24.21
2018-07-28T01:47:21.667Z,24.18
2018-07-28T01:48:30.323Z,24.24
2018-07-28T01:49:38.974Z,24.18
2018-07-28T01:50:47.625Z,24.16
2018-07-28T01:51:56.271Z,24.13
2018-07-28T01:53:04.928Z,24.13
2018-07-28T01:54:13.580Z,24.13
2018-07-28T01:55:22.232Z,24.09
2018-07-28T01:56:30.886Z,24.16
2018-07-28T01:57:39.532Z,24.09
2018-07-28T01:58:48.186Z,24.09
2018-07-28T01:59:57.098Z,24.06
2018-07-28T02:01:06.020Z,23.96
2018-07-28T02:02:14.664Z,23.99
2018-07-28T02:03:23.316Z,23.92
2018-07-28T02:04:31.969Z,23.91
2018-07-28T02:05:40.891Z,23.88
2018-07-28T02:06:49.537Z,23.74
2018-07-28T02:07:58.454Z,23.82
2018-07-28T02:09:07.104Z,23.76
2018-07-28T02:10:15.759Z,23.73
2018-07-28T02:11:24.408Z,23.66
2018-07-28T02:12:33.057Z,23.56
2018-07-28T02:13:41.710Z,23.69
2018-07-28T02:14:50.353Z,23.62
2018-07-28T02:15:59.009Z,23.56
2018-07-28T02:17:07.926Z,23.63
2018-07-28T02:18:16.580Z,23.45
2018-07-28T02:19:25.224Z,23.62
2018-07-28T02:20:34.148Z,23.66
2018-07-28T02:21:42.800Z,23.56
2018-07-28T02:22:51.453Z,23.58
2018-07-28T02:24:00.098Z,23.52
2018-07-28T02:25:08.753Z,23.48
2018-07-28T02:26:17.408Z,23.52
2018-07-28T02:27:26.064Z,23.52
2018-07-28T02:28:34.706Z,23.51
2018-07-28T02:29:43.361Z,23.51
2018-07-28T02:30:52.284Z,23.48
2018-07-28T02:32:01.204Z,23.36
2018-07-28T02:33:09.857Z,23.44
2018-07-28T02:34:18.503Z,23.25
2018-07-28T02:35:27.422Z,23.25
2018-07-28T02:36:36.330Z,23.33
2018-07-28T02:37:45.534Z,23.21
2018-07-28T02:38:54.184Z,23.2
2018-07-28T02:40:03.107Z,23.13
2018-07-28T02:41:11.760Z,23.13
2018-07-28T02:42:20.434Z,23.08
2018-07-28T02:43:29.077Z,23.1
2018-07-28T02:44:38.002Z,23.02
2018-07-28T02:45:46.914Z,22.98
2018-07-28T02:46:55.572Z,23.01
2018-07-28T02:48:04.497Z,22.95
2018-07-28T02:49:13.143Z,22.95
2018-07-28T02:50:21.794Z,22.93
2018-07-28T02:51:30.443Z,22.93
2018-07-28T02:52:39.102Z,22.96
2018-07-28T02:53:47.754Z,22.86
2018-07-28T02:54:57.206Z,22.88
2018-07-28T02:56:06.115Z,22.86
2018-07-28T02:57:14.780Z,22.84
2018-07-28T02:58:23.956Z,22.86
2018-07-28T02:59:32.644Z,22.8
2018-07-28T03:00:41.532Z,22.88
2018-07-28T03:01:50.194Z,22.83
2018-07-28T03:02:59.115Z,22.81
2018-07-28T03:04:07.768Z,22.76
2018-07-28T03:05:16.408Z,22.77
2018-07-28T03:06:25.590Z,22.73
2018-07-28T03:07:34.524Z,22.76
2018-07-28T03:08:43.191Z,22.78
2018-07-28T03:09:52.381Z,22.8
2018-07-28T03:11:01.286Z,22.77
2018-07-28T03:12:09.944Z,22.77
2018-07-28T03:13:18.596Z,22.77
2018-07-28T03:14:27.258Z,22.73
2018-07-28T03:15:35.906Z,22.78
2018-07-28T03:16:44.828Z,22.78
2018-07-28T03:17:53.742Z,22.7
2018-07-28T03:19:02.406Z,22.71
2018-07-28T03:20:11.061Z,22.71
2018-07-28T03:21:19.713Z,22.68
2018-07-28T03:22:28.622Z,22.71
2018-07-28T03:23:37.277Z,22.62
2018-07-28T03:24:46.193Z,22.56
2018-07-28T03:25:55.101Z,22.53
2018-07-28T03:27:04.027Z,22.59
2018-07-28T03:28:12.680Z,22.43
2018-07-28T03:29:21.335Z,22.41
2018-07-28T03:30:29.991Z,22.33
2018-07-28T03:31:38.908Z,22.3
2018-07-28T03:32:47.551Z,22.33
2018-07-28T03:33:56.206Z,22.3
2018-07-28T03:35:04.858Z,22.36
2018-07-28T03:36:13.504Z,22.21
2018-07-28T03:37:22.150Z,22.22
2018-07-28T03:38:30.805Z,22.23
2018-07-28T03:39:39.454Z,22.18
2018-07-28T03:40:48.107Z,22.19
2018-07-28T03:41:56.754Z,22.19
2018-07-28T03:43:05.406Z,22.14
2018-07-28T03:44:14.061Z,22.07
2018-07-28T03:45:22.704Z,22.19
2018-07-28T03:46:31.622Z,22.21
2018-07-28T03:47:40.526Z,22.19
2018-07-28T03:48:49.179Z,22.15
2018-07-28T03:49:57.826Z,22.12
2018-07-28T03:51:06.742Z,22.18
2018-07-28T03:52:15.388Z,22.15
2018-07-28T03:53:24.038Z,22.12
2018-07-28T03:54:32.689Z,22.15
2018-07-28T03:55:41.340Z,22.1
2018-07-28T03:56:49.985Z,22.08
2018-07-28T03:57:58.649Z,22.06
2018-07-28T03:59:07.823Z,22.12
2018-07-28T04:00:16.478Z,22.14
2018-07-28T04:01:25.386Z,22.15
2018-07-28T04:02:34.036Z,22.07
2018-07-28T04:03:42.943Z,22.15
2018-07-28T04:04:51.864Z,22.1
2018-07-28T04:06:00.520Z,22.04
2018-07-28T04:07:09.169Z,22.06
2018-07-28T04:08:17.819Z,22
2018-07-28T04:09:26.729Z,21.99
2018-07-28T04:10:35.392Z,21.97
2018-07-28T04:11:44.042Z,21.96
2018-07-28T04:12:52.692Z,22.01
2018-07-28T04:14:01.336Z,22.01
2018-07-28T04:15:10.003Z,22.03
2018-07-28T04:16:18.913Z,22
2018-07-28T04:17:27.565Z,21.96
2018-07-28T04:18:36.212Z,21.94
2018-07-28T04:19:44.865Z,22
2018-07-28T04:20:53.522Z,21.99
2018-07-28T04:22:02.169Z,22.04
2018-07-28T04:23:10.824Z,21.96
2018-07-28T04:24:19.465Z,21.97
2018-07-28T04:25:28.379Z,22
2018-07-28T04:26:37.027Z,21.99
2018-07-28T04:27:45.683Z,21.96
2018-07-28T04:28:54.324Z,22
2018-07-28T04:30:03.243Z,21.94
2018-07-28T04:31:11.888Z,22.06
2018-07-28T04:32:20.804Z,22.04
2018-07-28T04:33:29.443Z,21.99
2018-07-28T04:34:38.094Z,21.99
2018-07-28T04:35:47.005Z,21.97
2018-07-28T04:36:55.670Z,22
2018-07-28T04:38:04.580Z,21.88
2018-07-28T04:39:13.489Z,21.89
2018-07-28T04:40:22.137Z,21.88
2018-07-28T04:41:30.785Z,22.04
2018-07-28T04:42:39.980Z,22
2018-07-28T04:43:48.623Z,21.97
2018-07-28T04:44:57.282Z,22.04
2018-07-28T04:46:05.921Z,22
2018-07-28T04:47:14.577Z,22.03
2018-07-28T04:48:23.222Z,22
2018-07-28T04:49:31.874Z,22.01
2018-07-28T04:50:40.779Z,21.99
2018-07-28T04:51:49.437Z,21.91
2018-07-28T04:52:58.088Z,21.99
2018-07-28T04:54:07.002Z,22.01
2018-07-28T04:55:15.641Z,21.97
2018-07-28T04:56:24.289Z,22.01
2018-07-28T04:57:32.943Z,22.19
2018-07-28T04:58:41.859Z,22.16
2018-07-28T04:59:50.512Z,22.16
2018-07-28T05:00:59.152Z,22.22
2018-07-28T05:02:07.808Z,22.37
2018-07-28T05:03:16.453Z,22.37
2018-07-28T05:04:25.115Z,22.4
2018-07-28T05:05:34.018Z,22.51
2018-07-28T05:06:42.672Z,22.52
2018-07-28T05:07:51.316Z,22.52
2018-07-28T05:08:59.975Z,22.44
2018-07-28T05:10:08.885Z,22.38
2018-07-28T05:11:17.801Z,22.33
2018-07-28T05:12:26.448Z,22.33
2018-07-28T05:13:35.108Z,22.25
2018-07-28T05:14:43.756Z,22.22
2018-07-28T05:15:52.458Z,22.1
2018-07-28T05:17:01.050Z,22.15
2018-07-28T05:18:09.699Z,22.12
2018-07-28T05:19:18.365Z,22.14
2018-07-28T05:20:27.007Z,22.15
2018-07-28T05:21:35.660Z,22.19
2018-07-28T05:22:44.562Z,22.07
2018-07-28T05:23:53.556Z,22.03
2018-07-28T05:25:02.478Z,22.08
2018-07-28T05:26:11.384Z,22.01
2018-07-28T05:27:20.043Z,21.91
2018-07-28T05:28:28.686Z,21.96
2018-07-28T05:29:37.393Z,21.91
2018-07-28T05:30:45.979Z,21.92
2018-07-28T05:31:54.638Z,21.89
2018-07-28T05:33:03.287Z,21.92
2018-07-28T05:34:11.936Z,21.88
2018-07-28T05:35:20.584Z,21.85
2018-07-28T05:36:29.233Z,21.84
2018-07-28T05:37:37.897Z,21.91
2018-07-28T05:38:47.077Z,21.89
2018-07-28T05:39:55.733Z,21.94
2018-07-28T05:41:04.904Z,21.89
2018-07-28T05:42:13.565Z,21.89
2018-07-28T05:43:22.210Z,21.83
2018-07-28T05:44:30.865Z,21.85
2018-07-28T05:45:39.506Z,21.91
2018-07-28T05:46:48.162Z,21.92
2018-07-28T05:47:56.810Z,21.96
2018-07-28T05:49:05.462Z,21.88
2018-07-28T05:50:14.430Z,21.83
2018-07-28T05:51:23.019Z,21.85
2018-07-28T05:52:31.669Z,21.83
2018-07-28T05:53:40.321Z,21.88
2018-07-28T05:54:48.973Z,21.89
2018-07-28T05:55:57.613Z,22
2018-07-28T05:57:06.268Z,22.01
2018-07-28T05:58:14.922Z,22.04
2018-07-28T05:59:23.579Z,22.15
2018-07-28T06:00:32.220Z,22.19
2018-07-28T06:01:40.872Z,22.19
2018-07-28T06:02:49.537Z,22.34
2018-07-28T06:03:58.520Z,22.46
2018-07-28T06:05:07.168Z,22.61
2018-07-28T06:06:15.817Z,22.55
2018-07-28T06:07:24.470Z,22.8
2018-07-28T06:08:33.130Z,22.71
2018-07-28T06:09:41.776Z,22.83
2018-07-28T06:10:50.757Z,22.95
2018-07-28T06:11:59.326Z,23.04
2018-07-28T06:13:07.974Z,23.18
2018-07-28T06:14:16.655Z,23.2
2018-07-28T06:15:25.283Z,23.25
2018-07-28T06:16:33.937Z,23.37
2018-07-28T06:17:42.842Z,23.33
2018-07-28T06:18:51.503Z,23.39
2018-07-28T06:20:00.410Z,23.45
2018-07-28T06:21:09.065Z,23.56
2018-07-28T06:22:17.709Z,23.62
2018-07-28T06:23:26.629Z,23.64
2018-07-28T06:24:35.277Z,23.67
2018-07-28T06:25:43.930Z,23.7
2018-07-28T06:26:52.577Z,23.77
2018-07-28T06:28:01.232Z,23.77
2018-07-28T06:29:10.151Z,23.91
2018-07-28T06:30:18.805Z,23.91
2018-07-28T06:31:27.461Z,23.99
2018-07-28T06:32:36.426Z,23.96
2018-07-28T06:33:45.078Z,24.03
2018-07-28T06:34:53.729Z,24.01
2018-07-28T06:36:02.385Z,24.11
2018-07-28T06:37:11.030Z,24.16
2018-07-28T06:38:19.681Z,24.21
2018-07-28T06:39:28.350Z,24.29
2018-07-28T06:40:36.991Z,24.46
2018-07-28T06:41:45.637Z,24.38
2018-07-28T06:42:54.289Z,24.43
2018-07-28T06:44:02.942Z,24.55
2018-07-28T06:45:11.594Z,24.65
2018-07-28T06:46:20.247Z,24.65
2018-07-28T06:47:28.897Z,24.69
2018-07-28T06:48:37.543Z,24.74
2018-07-28T06:49:46.194Z,24.75
2018-07-28T06:50:54.850Z,24.81
2018-07-28T06:52:03.501Z,24.88
2018-07-28T06:53:12.152Z,24.84
2018-07-28T06:54:21.067Z,24.97
2018-07-28T06:55:29.724Z,24.86
2018-07-28T06:56:38.648Z,24.96
2018-07-28T06:57:47.300Z,24.99
2018-07-28T06:58:55.949Z,25.06
2018-07-28T07:00:04.606Z,25.07
2018-07-28T07:01:13.252Z,25.19
2018-07-28T07:02:21.910Z,25.21
2018-07-28T07:03:30.553Z,25.24
2018-07-28T07:04:39.533Z,25.29
2018-07-28T07:05:48.458Z,25.36
2018-07-28T07:06:57.114Z,25.39
2018-07-28T07:08:05.772Z,25.43
2018-07-28T07:09:14.420Z,25.52
2018-07-28T07:10:23.071Z,25.54
2018-07-28T07:11:31.738Z,25.49
2018-07-28T07:12:40.380Z,25.55
2018-07-28T07:13:49.028Z,25.7
2018-07-28T07:14:57.678Z,25.7
2018-07-28T07:16:06.335Z,25.68
2018-07-28T07:17:15.260Z,25.78
2018-07-28T07:18:23.907Z,25.83
2018-07-28T07:19:32.563Z,25.86
2018-07-28T07:20:41.218Z,25.83
2018-07-28T07:21:50.386Z,25.89
2018-07-28T07:22:59.041Z,25.95
2018-07-28T07:24:07.697Z,25.95
2018-07-28T07:25:16.353Z,25.99
2018-07-28T07:26:25.273Z,26.01
2018-07-28T07:27:33.910Z,26.06
2018-07-28T07:28:42.566Z,26.18
2018-07-28T07:29:51.209Z,26.22
2018-07-28T07:30:59.877Z,26.26
2018-07-28T07:32:08.516Z,26.19
2018-07-28T07:33:17.174Z,26.31
2018-07-28T07:34:25.817Z,26.34
2018-07-28T07:35:34.478Z,26.36
2018-07-28T07:36:43.121Z,26.29
2018-07-28T07:37:51.776Z,26.34
2018-07-28T07:39:00.690Z,26.44
2018-07-28T07:40:09.360Z,26.48
2018-07-28T07:41:18.275Z,26.59
2018-07-28T07:42:26.923Z,26.53
2018-07-28T07:43:35.573Z,26.52
2018-07-28T07:44:44.222Z,26.6
2018-07-28T07:45:53.149Z,26.66
2018-07-28T07:47:01.797Z,26.68
2018-07-28T07:48:10.452Z,26.79
2018-07-28T07:49:19.097Z,26.79
2018-07-28T07:50:27.760Z,26.76
2018-07-28T07:51:36.408Z,26.81
2018-07-28T07:52:45.064Z,26.85
2018-07-28T07:53:53.769Z,26.88
2018-07-28T07:55:02.369Z,26.85
2018-07-28T07:56:11.018Z,26.91
2018-07-28T07:57:19.672Z,26.85
2018-07-28T07:58:28.317Z,26.85
2018-07-28T07:59:36.974Z,26.83
2018-07-28T08:00:45.630Z,26.89
2018-07-28T08:01:54.286Z,26.97
2018-07-28T08:03:03.204Z,27.03
2018-07-28T08:04:11.848Z,27.03
2018-07-28T08:05:20.505Z,27.1
2018-07-28T08:06:29.196Z,27.18
2018-07-28T08:07:38.097Z,27.2
2018-07-28T08:08:47.003Z,27.4
2018-07-28T08:09:55.662Z,27.33
2018-07-28T08:11:04.316Z,27.34
2018-07-28T08:12:13.238Z,27.38
2018-07-28T08:13:21.882Z,27.48
2018-07-28T08:14:30.539Z,27.57
2018-07-28T08:15:39.192Z,27.64
2018-07-28T08:16:47.855Z,27.68
2018-07-28T08:17:56.504Z,27.61
2018-07-28T08:19:05.152Z,27.6
2018-07-28T08:20:13.807Z,27.67
2018-07-28T08:21:22.454Z,27.63
2018-07-28T08:22:31.113Z,27.58
2018-07-28T08:23:39.768Z,27.58
2018-07-28T08:24:48.686Z,27.6
2018-07-28T08:25:57.599Z,27.71
2018-07-28T08:27:06.515Z,27.83
2018-07-28T08:28:15.430Z,27.82
2018-07-28T08:29:24.095Z,27.9
2018-07-28T08:30:32.739Z,27.91
2018-07-28T08:31:41.395Z,27.97
2018-07-28T08:32:50.046Z,28.03
2018-07-28T08:33:58.965Z,27.98
2018-07-28T08:35:07.882Z,28
2018-07-28T08:36:16.539Z,28.09
2018-07-28T08:37:25.191Z,28.13
2018-07-28T08:38:33.849Z,28.1
2018-07-28T08:39:42.501Z,28.13
2018-07-28T08:40:51.152Z,27.97
2018-07-28T08:41:59.804Z,27.98
2018-07-28T08:43:08.460Z,27.86
2018-07-28T08:44:17.119Z,27.82
2018-07-28T08:45:25.768Z,27.75
2018-07-28T08:46:34.421Z,27.61
2018-07-28T08:47:43.075Z,27.53
2018-07-28T08:48:51.794Z,27.35
2018-07-28T08:50:00.384Z,27.2
2018-07-28T08:51:09.038Z,27.22
2018-07-28T08:52:17.690Z,27.13
2018-07-28T08:53:26.348Z,27.16
2018-07-28T08:54:35.059Z,27.04
2018-07-28T08:55:43.655Z,26.97
2018-07-28T08:56:52.307Z,27.1
2018-07-28T08:58:00.956Z,27
2018-07-28T08:59:09.617Z,26.88
2018-07-28T09:00:18.277Z,26.89
2018-07-28T09:01:26.937Z,26.82
2018-07-28T09:02:35.845Z,26.83
2018-07-28T09:03:44.506Z,26.85
2018-07-28T09:04:53.158Z,26.73
2018-07-28T09:06:01.883Z,26.63
2018-07-28T09:07:10.862Z,26.61
2018-07-28T09:08:19.515Z,26.53
2018-07-28T09:09:28.163Z,26.44
2018-07-28T09:10:37.131Z,26.3
2018-07-28T09:11:45.731Z,26.3
2018-07-28T09:12:54.384Z,26.26
2018-07-28T09:14:03.035Z,26.16
2018-07-28T09:15:11.687Z,26.19
2018-07-28T09:16:20.388Z,26.08
2018-07-28T09:17:28.992Z,26.07
2018-07-28T09:18:37.648Z,26.03
2018-07-28T09:19:46.302Z,25.96
2018-07-28T09:20:54.951Z,25.86
2018-07-28T09:22:03.608Z,25.81
2018-07-28T09:23:12.326Z,25.78
2018-07-28T09:24:20.913Z,25.81
2018-07-28T09:25:29.561Z,25.77
2018-07-28T09:26:38.217Z,25.73
2018-07-28T09:27:46.885Z,25.81
2018-07-28T09:28:55.796Z,25.81
2018-07-28T09:30:04.705Z,25.93
2018-07-28T09:31:13.357Z,25.92
2018-07-28T09:32:22.277Z,26.01
2018-07-28T09:33:30.933Z,26.07
2018-07-28T09:34:39.586Z,26.04
2018-07-28T09:35:48.237Z,26.24
2018-07-28T09:36:57.174Z,26.26
2018-07-28T09:38:05.816Z,26.23
2018-07-28T09:39:14.740Z,26.18
2018-07-28T09:40:23.387Z,26.23
2018-07-28T09:41:32.041Z,26.31
2018-07-28T09:42:40.694Z,26.29
2018-07-28T09:43:49.349Z,26.29
2018-07-28T09:44:57.999Z,26.41
2018-07-28T09:46:06.921Z,26.41
2018-07-28T09:47:15.574Z,26.44
2018-07-28T09:48:24.232Z,26.42
2018-07-28T09:49:32.889Z,26.45
2018-07-28T09:50:41.603Z,26.49
2018-07-28T09:51:50.195Z,26.48
2018-07-28T09:52:58.845Z,26.42
2018-07-28T09:54:07.508Z,26.41
2018-07-28T09:55:16.161Z,26.33
2018-07-28T09:56:24.815Z,26.29
2018-07-28T09:57:33.464Z,26.15
2018-07-28T09:58:42.122Z,26.13
2018-07-28T09:59:50.775Z,26.13
2018-07-28T10:00:59.427Z,26.11
2018-07-28T10:02:08.085Z,26.03
2018-07-28T10:03:17.058Z,26.13
2018-07-28T10:04:25.708Z,25.96
2018-07-28T10:05:34.730Z,25.99
2018-07-28T10:06:43.354Z,25.95
2018-07-28T10:07:52.277Z,25.93
2018-07-28T10:09:00.929Z,25.93
2018-07-28T10:10:09.585Z,25.93
2018-07-28T10:11:18.239Z,25.96
2018-07-28T10:12:27.153Z,25.85
2018-07-28T10:13:35.804Z,25.74
2018-07-28T10:14:44.457Z,25.74
2018-07-28T10:15:53.114Z,25.71
2018-07-28T10:17:02.029Z,25.67
2018-07-28T10:18:10.685Z,25.59
2018-07-28T10:19:19.596Z,25.52
2018-07-28T10:20:28.255Z,25.61
2018-07-28T10:21:36.899Z,25.51
2018-07-28T10:22:45.584Z,25.51
2018-07-28T10:23:54.203Z,25.31
2018-07-28T10:25:02.867Z,25.36
2018-07-28T10:26:11.779Z,25.29
2018-07-28T10:27:20.426Z,25.18
2018-07-28T10:28:29.363Z,25.16
2018-07-28T10:29:38.274Z,25.14
2018-07-28T10:30:46.937Z,25.07
2018-07-28T10:31:55.584Z,25.07
2018-07-28T10:33:04.240Z,25.12
2018-07-28T10:34:12.884Z,25.04
2018-07-28T10:35:21.544Z,25
2018-07-28T10:36:30.254Z,24.94
2018-07-28T10:37:38.847Z,24.96
2018-07-28T10:38:47.490Z,24.86
2018-07-28T10:39:56.153Z,24.82
2018-07-28T10:41:04.803Z,24.85
2018-07-28T10:42:13.456Z,24.75
2018-07-28T10:43:22.098Z,24.65
2018-07-28T10:44:31.015Z,24.55
2018-07-28T10:45:39.688Z,24.47
2018-07-28T10:46:48.788Z,24.37
2018-07-28T10:47:57.710Z,24.21
2018-07-28T10:49:06.353Z,24.26
2018-07-28T10:50:15.009Z,24.24
2018-07-28T10:51:23.655Z,24.21
2018-07-28T10:52:32.314Z,24.26
2018-07-28T10:53:40.955Z,24.34
2018-07-28T10:54:49.890Z,24.29
2018-07-28T10:55:58.538Z,24.32
2018-07-28T10:57:07.197Z,24.55
2018-07-28T10:58:16.125Z,24.5
2018-07-28T10:59:25.043Z,24.75
2018-07-28T11:00:33.832Z,24.79
2018-07-28T11:01:42.352Z,24.86
2018-07-28T11:02:50.999Z,24.97
2018-07-28T11:03:59.645Z,24.94
2018-07-28T11:05:08.300Z,24.99
2018-07-28T11:06:16.950Z,25.01
2018-07-28T11:07:25.615Z,25.06
2018-07-28T11:08:34.263Z,25.11
2018-07-28T11:09:42.921Z,25.12
2018-07-28T11:10:51.563Z,25.19
2018-07-28T11:12:00.225Z,25.26
2018-07-28T11:13:08.875Z,25.3
2018-07-28T11:14:17.529Z,25.34
2018-07-28T11:15:26.175Z,25.34
2018-07-28T11:16:34.831Z,25.29
2018-07-28T11:17:43.484Z,25.3
2018-07-28T11:18:52.463Z,25.4
2018-07-28T11:20:01.048Z,25.48
2018-07-28T11:21:09.701Z,25.48
2018-07-28T11:22:18.353Z,25.61
2018-07-28T11:23:27.011Z,25.7
2018-07-28T11:24:35.666Z,25.8
2018-07-28T11:25:44.315Z,25.81
2018-07-28T11:26:53.247Z,25.95
2018-07-28T11:28:01.901Z,26.15
2018-07-28T11:29:10.559Z,26.11
2018-07-28T11:30:19.207Z,26.11
2018-07-28T11:31:27.859Z,26.16
2018-07-28T11:32:36.512Z,26.29
2018-07-28T11:33:45.170Z,26.33
2018-07-28T11:34:53.825Z,26.59
2018-07-28T11:36:02.482Z,26.6
2018-07-28T11:37:11.390Z,26.71
2018-07-28T11:38:20.047Z,26.74
2018-07-28T11:39:28.965Z,26.71
2018-07-28T11:40:37.885Z,26.64
2018-07-28T11:41:46.541Z,26.66
2018-07-28T11:42:55.192Z,26.68
2018-07-28T11:44:03.854Z,26.73
2018-07-28T11:45:12.780Z,26.88
2018-07-28T11:46:21.435Z,26.82
2018-07-28T11:47:30.085Z,26.83
2018-07-28T11:48:38.743Z,26.67
2018-07-28T11:49:47.398Z,26.83
2018-07-28T11:50:56.052Z,26.79
2018-07-28T11:52:04.703Z,26.74
2018-07-28T11:53:13.362Z,26.71
2018-07-28T11:54:22.018Z,26.6
2018-07-28T11:55:30.960Z,26.59
2018-07-28T11:56:39.610Z,26.52
2018-07-28T11:57:48.266Z,26.56
2018-07-28T11:58:56.920Z,26.68
2018-07-28T12:00:05.576Z,26.81
2018-07-28T12:01:14.232Z,26.93
2018-07-28T12:02:22.886Z,26.88
2018-07-28T12:03:31.805Z,26.96
2018-07-28T12:04:40.456Z,26.92
2018-07-28T12:05:49.118Z,27
2018-07-28T12:06:57.765Z,27
2018-07-28T12:08:06.421Z,27.1
2018-07-28T12:09:15.074Z,27.15
2018-07-28T12:10:23.732Z,27.08
2018-07-28T12:11:32.383Z,27.05
2018-07-28T12:12:41.057Z,27.04
2018-07-28T12:13:49.688Z,26.98
2018-07-28T12:14:58.350Z,26.98
2018-07-28T12:16:07.268Z,26.96
2018-07-28T12:17:15.918Z,26.96
2018-07-28T12:18:25.057Z,26.97
2018-07-28T12:19:33.688Z,27.05
2018-07-28T12:20:42.353Z,27.01
2018-07-28T12:21:50.998Z,27.25
2018-07-28T12:22:59.920Z,27.13
2018-07-28T12:24:08.563Z,27.16
2018-07-28T12:25:17.230Z,27.05
2018-07-28T12:26:25.878Z,27.08
2018-07-28T12:27:34.798Z,27
2018-07-28T12:28:43.443Z,26.96
2018-07-28T12:29:52.106Z,27.05
2018-07-28T12:31:00.755Z,27.2
2018-07-28T12:32:09.409Z,27.25
2018-07-28T12:33:18.054Z,27.34
2018-07-28T12:34:26.709Z,27.52
2018-07-28T12:35:35.367Z,27.55
2018-07-28T12:36:44.023Z,27.61
2018-07-28T12:37:52.679Z,27.63
2018-07-28T12:39:01.322Z,27.73
2018-07-28T12:40:09.981Z,27.64
2018-07-28T12:41:18.631Z,27.48
2018-07-28T12:42:27.294Z,27.47
2018-07-28T12:43:35.938Z,27.5
2018-07-28T12:44:44.595Z,27.48
2018-07-28T12:45:53.244Z,27.4
2018-07-28T12:47:01.906Z,27.48
2018-07-28T12:48:10.554Z,27.43
2018-07-28T12:49:19.217Z,27.5
2018-07-28T12:50:28.130Z,27.45
2018-07-28T12:51:37.057Z,27.55
2018-07-28T12:52:45.710Z,27.52
2018-07-28T12:53:54.362Z,27.58
2018-07-28T12:55:03.278Z,27.63
2018-07-28T12:56:11.938Z,27.73
2018-07-28T12:57:21.239Z,27.78
2018-07-28T12:58:29.881Z,27.78
2018-07-28T12:59:38.545Z,27.79
2018-07-28T13:00:47.188Z,27.82
2018-07-28T13:01:55.854Z,27.78
2018-07-28T13:03:04.500Z,27.9
2018-07-28T13:04:13.156Z,28
2018-07-28T13:05:21.804Z,27.82
2018-07-28T13:06:30.468Z,27.91
2018-07-28T13:07:39.120Z,27.95
2018-07-28T13:08:47.777Z,27.95
2018-07-28T13:09:56.431Z,27.97
2018-07-28T13:11:05.356Z,28
2018-07-28T13:12:14.013Z,28.06
2018-07-28T13:13:22.668Z,28.15
2018-07-28T13:14:31.322Z,28.28
2018-07-28T13:15:39.993Z,28.41
2018-07-28T13:16:48.645Z,28.47
2018-07-28T13:17:57.409Z,28.43
2018-07-28T13:19:05.949Z,28.43
2018-07-28T13:20:14.614Z,28.25
2018-07-28T13:21:23.264Z,28.18
2018-07-28T13:22:31.922Z,28.12
2018-07-28T13:23:40.869Z,28.01
2018-07-28T13:24:49.496Z,27.95
2018-07-28T13:25:58.149Z,27.94
2018-07-28T13:27:06.805Z,27.97
2018-07-28T13:28:15.713Z,27.95
2018-07-28T13:29:24.372Z,27.88
2018-07-28T13:30:33.029Z,27.98
2018-07-28T13:31:41.683Z,28.04
2018-07-28T13:32:50.339Z,27.98
2018-07-28T13:33:58.985Z,28.01
2018-07-28T13:35:07.644Z,28.1
2018-07-28T13:36:16.295Z,28.16
2018-07-28T13:37:25.226Z,28.15
2018-07-28T13:38:33.873Z,28.18
2018-07-28T13:39:42.531Z,28.19
2018-07-28T13:40:51.181Z,28.25
2018-07-28T13:41:59.848Z,28.25
2018-07-28T13:43:08.491Z,28.25
2018-07-28T13:44:17.145Z,28.25
2018-07-28T13:45:25.798Z,28.33
2018-07-28T13:46:34.459Z,28.31
2018-07-28T13:47:43.115Z,28.38
2018-07-28T13:48:51.764Z,28.38
2018-07-28T13:50:00.417Z,28.41
2018-07-28T13:51:09.068Z,28.52
2018-07-28T13:52:17.734Z,28.49
2018-07-28T13:53:26.982Z,28.5
2018-07-28T13:54:35.571Z,28.46
2018-07-28T13:55:44.221Z,28.46
2018-07-28T13:56:53.142Z,28.47
2018-07-28T13:58:01.792Z,28.62
2018-07-28T13:59:10.480Z,28.6
2018-07-28T14:00:19.099Z,28.68
2018-07-28T14:01:27.759Z,28.77
2018-07-28T14:02:36.696Z,28.74
2018-07-28T14:03:45.351Z,28.74
2018-07-28T14:04:54.260Z,28.7
2018-07-28T14:06:03.262Z,28.65
2018-07-28T14:07:12.610Z,28.68
2018-07-28T14:08:21.270Z,28.64
2018-07-28T14:09:29.923Z,28.71
2018-07-28T14:10:38.568Z,28.74
2018-07-28T14:11:47.225Z,28.71
2018-07-28T14:12:55.880Z,28.72
2018-07-28T14:14:04.541Z,28.65
2018-07-28T14:15:13.535Z,28.65
2018-07-28T14:16:22.400Z,28.55
2018-07-28T14:17:31.054Z,28.57
2018-07-28T14:18:40.013Z,28.47
2018-07-28T14:19:48.929Z,28.52
2018-07-28T14:20:57.586Z,28.49
2018-07-28T14:22:06.244Z,28.5
2018-07-28T14:23:15.186Z,28.47
2018-07-28T14:24:23.823Z,28.55
2018-07-28T14:25:32.478Z,28.55
2018-07-28T14:26:41.131Z,28.62
2018-07-28T14:27:49.783Z,28.56
2018-07-28T14:28:58.446Z,28.65
2018-07-28T14:30:07.359Z,28.77
2018-07-28T14:31:16.280Z,28.7
2018-07-28T14:32:24.930Z,28.8
2018-07-28T14:33:33.591Z,28.93
2018-07-28T14:34:42.244Z,28.86
2018-07-28T14:35:50.900Z,29.07
2018-07-28T14:36:59.550Z,29.07
2018-07-28T14:38:08.209Z,29.21
2018-07-28T14:39:16.861Z,29.18
2018-07-28T14:40:25.519Z,29
2018-07-28T14:41:34.172Z,28.97
2018-07-28T14:42:42.831Z,28.94
2018-07-28T14:43:51.495Z,28.9
2018-07-28T14:45:00.144Z,28.92
2018-07-28T14:46:09.064Z,28.9
2018-07-28T14:47:17.710Z,28.83
2018-07-28T14:48:26.365Z,28.92
2018-07-28T14:49:35.019Z,28.9